sensor_id;sensor_type;location;lat;lon;timestamp;P1;durP1;ratioP1;P2;durP2;ratioP2
39102;SDS011;24847;48.218;16.414;2023-03-01T00:04:08;20.38;;;13.68;;
39102;SDS011;24847;48.218;16.414;2023-03-01T00:09:12;20.40;;;14.23;;
39102;SDS011;24847;48.218;16.414;2023-03-01T00:14:15;17.58;;;13.60;;
39102;SDS011;24847;48.218;16.414;2023-03-01T00:19:18;20.17;;;14.77;;
39102;SDS011;24847;48.218;16.414;2023-03-01T00:24:24;20.33;;;14.10;;
39102;SDS011;24847;48.218;16.414;2023-03-01T00:29:26;22.05;;;14.32;;
39102;SDS011;24847;48.218;16.414;2023-03-01T00:40:15;20.58;;;14.18;;
39102;SDS011;24847;48.218;16.414;2023-03-01T00:45:18;21.30;;;14.23;;
39102;SDS011;24847;48.218;16.414;2023-03-01T00:50:21;20.13;;;13.57;;
39102;SDS011;24847;48.218;16.414;2023-03-01T00:55:24;20.30;;;13.23;;
39102;SDS011;24847;48.218;16.414;2023-03-01T01:00:28;21.17;;;14.63;;
39102;SDS011;24847;48.218;16.414;2023-03-01T01:05:30;21.20;;;14.65;;
39102;SDS011;24847;48.218;16.414;2023-03-01T01:10:37;19.98;;;14.02;;
39102;SDS011;24847;48.218;16.414;2023-03-01T01:15:40;22.02;;;15.30;;
39102;SDS011;24847;48.218;16.414;2023-03-01T01:20:42;20.63;;;14.27;;
39102;SDS011;24847;48.218;16.414;2023-03-01T01:25:46;20.25;;;14.57;;
39102;SDS011;24847;48.218;16.414;2023-03-01T01:30:48;21.02;;;14.45;;
39102;SDS011;24847;48.218;16.414;2023-03-01T01:35:50;21.88;;;14.13;;
39102;SDS011;24847;48.218;16.414;2023-03-01T01:40:54;20.60;;;14.50;;
39102;SDS011;24847;48.218;16.414;2023-03-01T01:45:57;23.17;;;15.15;;
39102;SDS011;24847;48.218;16.414;2023-03-01T01:51:03;23.10;;;15.05;;
39102;SDS011;24847;48.218;16.414;2023-03-01T01:56:07;21.35;;;14.65;;
39102;SDS011;24847;48.218;16.414;2023-03-01T02:01:12;22.48;;;15.13;;
39102;SDS011;24847;48.218;16.414;2023-03-01T02:06:17;23.38;;;15.63;;
39102;SDS011;24847;48.218;16.414;2023-03-01T02:11:31;25.13;;;16.15;;
39102;SDS011;24847;48.218;16.414;2023-03-01T02:16:34;23.38;;;15.85;;
39102;SDS011;24847;48.218;16.414;2023-03-01T02:21:38;24.77;;;16.90;;
39102;SDS011;24847;48.218;16.414;2023-03-01T02:26:51;20.30;;;14.93;;
39102;SDS011;24847;48.218;16.414;2023-03-01T02:31:58;23.35;;;15.85;;
39102;SDS011;24847;48.218;16.414;2023-03-01T02:37:04;21.23;;;15.77;;
39102;SDS011;24847;48.218;16.414;2023-03-01T02:42:13;25.25;;;16.30;;
39102;SDS011;24847;48.218;16.414;2023-03-01T02:47:21;24.48;;;16.25;;
39102;SDS011;24847;48.218;16.414;2023-03-01T02:52:27;25.60;;;15.88;;
39102;SDS011;24847;48.218;16.414;2023-03-01T02:57:45;22.55;;;15.57;;
39102;SDS011;24847;48.218;16.414;2023-03-01T03:02:52;23.80;;;16.52;;
39102;SDS011;24847;48.218;16.414;2023-03-01T03:07:58;23.40;;;15.73;;
39102;SDS011;24847;48.218;16.414;2023-03-01T03:13:02;23.17;;;16.17;;
39102;SDS011;24847;48.218;16.414;2023-03-01T03:18:10;24.00;;;16.05;;
39102;SDS011;24847;48.218;16.414;2023-03-01T03:23:19;25.27;;;15.88;;
39102;SDS011;24847;48.218;16.414;2023-03-01T03:28:22;24.90;;;16.88;;
39102;SDS011;24847;48.218;16.414;2023-03-01T03:33:26;22.98;;;15.45;;
39102;SDS011;24847;48.218;16.414;2023-03-01T03:38:28;22.95;;;15.88;;
39102;SDS011;24847;48.218;16.414;2023-03-01T03:43:32;22.35;;;15.50;;
39102;SDS011;24847;48.218;16.414;2023-03-01T03:48:38;24.05;;;16.30;;
39102;SDS011;24847;48.218;16.414;2023-03-01T03:53:44;25.10;;;17.35;;
39102;SDS011;24847;48.218;16.414;2023-03-01T03:58:47;24.95;;;16.27;;
39102;SDS011;24847;48.218;16.414;2023-03-01T04:03:50;23.63;;;16.55;;
39102;SDS011;24847;48.218;16.414;2023-03-01T04:08:54;25.02;;;16.58;;
39102;SDS011;24847;48.218;16.414;2023-03-01T04:13:58;25.48;;;17.00;;
39102;SDS011;24847;48.218;16.414;2023-03-01T04:19:02;22.25;;;16.00;;
39102;SDS011;24847;48.218;16.414;2023-03-01T04:24:06;25.05;;;16.92;;
39102;SDS011;24847;48.218;16.414;2023-03-01T04:29:09;23.50;;;16.88;;
39102;SDS011;24847;48.218;16.414;2023-03-01T04:34:13;23.15;;;16.67;;
39102;SDS011;24847;48.218;16.414;2023-03-01T04:39:15;23.45;;;16.85;;
39102;SDS011;24847;48.218;16.414;2023-03-01T04:44:18;24.67;;;16.45;;
39102;SDS011;24847;48.218;16.414;2023-03-01T04:49:21;26.45;;;16.52;;
39102;SDS011;24847;48.218;16.414;2023-03-01T04:54:24;24.42;;;16.02;;
39102;SDS011;24847;48.218;16.414;2023-03-01T04:59:28;24.38;;;16.42;;
39102;SDS011;24847;48.218;16.414;2023-03-01T05:04:37;24.35;;;16.73;;
39102;SDS011;24847;48.218;16.414;2023-03-01T05:09:39;26.67;;;16.02;;
39102;SDS011;24847;48.218;16.414;2023-03-01T05:14:42;27.23;;;16.45;;
39102;SDS011;24847;48.218;16.414;2023-03-01T05:19:45;24.55;;;16.83;;
39102;SDS011;24847;48.218;16.414;2023-03-01T05:24:48;23.98;;;15.43;;
39102;SDS011;24847;48.218;16.414;2023-03-01T05:29:50;24.63;;;15.70;;
39102;SDS011;24847;48.218;16.414;2023-03-01T05:34:54;21.35;;;15.35;;
39102;SDS011;24847;48.218;16.414;2023-03-01T05:39:57;23.55;;;16.55;;
39102;SDS011;24847;48.218;16.414;2023-03-01T05:44:59;23.10;;;15.63;;
39102;SDS011;24847;48.218;16.414;2023-03-01T05:50:02;25.95;;;16.95;;
39102;SDS011;24847;48.218;16.414;2023-03-01T05:55:07;24.42;;;16.58;;
39102;SDS011;24847;48.218;16.414;2023-03-01T06:00:11;23.70;;;15.85;;
39102;SDS011;24847;48.218;16.414;2023-03-01T06:05:17;24.73;;;15.88;;
39102;SDS011;24847;48.218;16.414;2023-03-01T06:10:21;23.83;;;16.63;;
39102;SDS011;24847;48.218;16.414;2023-03-01T06:15:24;22.25;;;15.80;;
39102;SDS011;24847;48.218;16.414;2023-03-01T06:20:28;24.10;;;15.90;;
39102;SDS011;24847;48.218;16.414;2023-03-01T06:25:31;21.02;;;14.80;;
39102;SDS011;24847;48.218;16.414;2023-03-01T06:30:33;23.75;;;15.45;;
39102;SDS011;24847;48.218;16.414;2023-03-01T06:35:37;22.00;;;15.65;;
39102;SDS011;24847;48.218;16.414;2023-03-01T06:40:39;24.67;;;16.83;;
39102;SDS011;24847;48.218;16.414;2023-03-01T06:45:42;25.77;;;17.38;;
39102;SDS011;24847;48.218;16.414;2023-03-01T06:50:45;24.65;;;15.38;;
39102;SDS011;24847;48.218;16.414;2023-03-01T06:55:47;20.50;;;15.20;;
39102;SDS011;24847;48.218;16.414;2023-03-01T07:00:56;22.70;;;15.40;;
39102;SDS011;24847;48.218;16.414;2023-03-01T07:06:00;21.95;;;15.10;;
39102;SDS011;24847;48.218;16.414;2023-03-01T07:11:02;24.10;;;16.02;;
39102;SDS011;24847;48.218;16.414;2023-03-01T07:16:06;22.48;;;15.73;;
39102;SDS011;24847;48.218;16.414;2023-03-01T07:21:11;22.92;;;16.10;;
39102;SDS011;24847;48.218;16.414;2023-03-01T07:26:16;24.30;;;15.20;;
39102;SDS011;24847;48.218;16.414;2023-03-01T07:31:18;23.92;;;14.82;;
39102;SDS011;24847;48.218;16.414;2023-03-01T07:36:22;25.42;;;16.10;;
39102;SDS011;24847;48.218;16.414;2023-03-01T07:41:25;24.67;;;15.57;;
39102;SDS011;24847;48.218;16.414;2023-03-01T07:46:27;23.70;;;16.38;;
39102;SDS011;24847;48.218;16.414;2023-03-01T07:51:31;28.73;;;16.50;;
39102;SDS011;24847;48.218;16.414;2023-03-01T07:56:33;23.00;;;17.33;;
39102;SDS011;24847;48.218;16.414;2023-03-01T08:01:52;24.33;;;15.90;;
39102;SDS011;24847;48.218;16.414;2023-03-01T08:07:14;21.50;;;15.82;;
39102;SDS011;24847;48.218;16.414;2023-03-01T08:12:36;24.27;;;15.93;;
39102;SDS011;24847;48.218;16.414;2023-03-01T08:17:59;20.27;;;14.50;;
39102;SDS011;24847;48.218;16.414;2023-03-01T08:23:26;21.30;;;15.15;;
39102;SDS011;24847;48.218;16.414;2023-03-01T08:28:50;20.73;;;14.93;;
39102;SDS011;24847;48.218;16.414;2023-03-01T08:34:14;20.88;;;15.20;;
39102;SDS011;24847;48.218;16.414;2023-03-01T08:39:39;22.45;;;15.68;;
39102;SDS011;24847;48.218;16.414;2023-03-01T08:45:02;21.83;;;15.68;;
39102;SDS011;24847;48.218;16.414;2023-03-01T08:50:25;20.75;;;14.73;;
39102;SDS011;24847;48.218;16.414;2023-03-01T08:55:49;22.15;;;15.38;;
39102;SDS011;24847;48.218;16.414;2023-03-01T09:01:12;22.30;;;15.60;;
39102;SDS011;24847;48.218;16.414;2023-03-01T09:06:37;20.95;;;14.27;;
39102;SDS011;24847;48.218;16.414;2023-03-01T09:12:01;20.67;;;15.50;;
39102;SDS011;24847;48.218;16.414;2023-03-01T09:17:25;20.98;;;15.05;;
39102;SDS011;24847;48.218;16.414;2023-03-01T09:22:47;20.00;;;14.88;;
39102;SDS011;24847;48.218;16.414;2023-03-01T09:28:11;21.70;;;14.48;;
39102;SDS011;24847;48.218;16.414;2023-03-01T09:33:34;21.67;;;15.32;;
39102;SDS011;24847;48.218;16.414;2023-03-01T09:38:57;19.25;;;13.45;;
39102;SDS011;24847;48.218;16.414;2023-03-01T09:44:24;21.42;;;14.55;;
39102;SDS011;24847;48.218;16.414;2023-03-01T09:49:58;19.15;;;14.73;;
39102;SDS011;24847;48.218;16.414;2023-03-01T09:55:30;17.30;;;13.27;;
39102;SDS011;24847;48.218;16.414;2023-03-01T10:01:02;17.27;;;13.68;;
39102;SDS011;24847;48.218;16.414;2023-03-01T10:06:39;20.45;;;13.85;;
39102;SDS011;24847;48.218;16.414;2023-03-01T10:12:08;19.35;;;13.90;;
39102;SDS011;24847;48.218;16.414;2023-03-01T10:17:35;19.52;;;13.90;;
39102;SDS011;24847;48.218;16.414;2023-03-01T10:23:01;18.02;;;13.30;;
39102;SDS011;24847;48.218;16.414;2023-03-01T10:28:25;21.55;;;14.70;;
39102;SDS011;24847;48.218;16.414;2023-03-01T10:33:54;18.08;;;13.13;;
39102;SDS011;24847;48.218;16.414;2023-03-01T10:39:20;18.42;;;12.90;;
39102;SDS011;24847;48.218;16.414;2023-03-01T10:44:46;15.70;;;12.07;;
39102;SDS011;24847;48.218;16.414;2023-03-01T10:50:19;18.90;;;13.15;;
39102;SDS011;24847;48.218;16.414;2023-03-01T10:55:43;14.95;;;12.23;;
39102;SDS011;24847;48.218;16.414;2023-03-01T11:01:06;16.05;;;11.45;;
39102;SDS011;24847;48.218;16.414;2023-03-01T11:06:57;13.00;;;11.13;;
39102;SDS011;24847;48.218;16.414;2023-03-01T11:12:21;14.30;;;10.50;;
39102;SDS011;24847;48.218;16.414;2023-03-01T11:17:43;13.18;;;11.65;;
39102;SDS011;24847;48.218;16.414;2023-03-01T11:23:10;15.75;;;11.55;;
39102;SDS011;24847;48.218;16.414;2023-03-01T11:28:36;13.98;;;11.85;;
39102;SDS011;24847;48.218;16.414;2023-03-01T11:34:03;15.32;;;12.07;;
39102;SDS011;24847;48.218;16.414;2023-03-01T11:39:36;14.23;;;11.32;;
39102;SDS011;24847;48.218;16.414;2023-03-01T11:45:06;10.57;;;8.70;;
39102;SDS011;24847;48.218;16.414;2023-03-01T11:56:07;9.93;;;7.90;;
39102;SDS011;24847;48.218;16.414;2023-03-01T12:01:47;11.65;;;9.15;;
39102;SDS011;24847;48.218;16.414;2023-03-01T12:07:31;10.25;;;8.55;;
39102;SDS011;24847;48.218;16.414;2023-03-01T12:12:48;9.50;;;7.70;;
39102;SDS011;24847;48.218;16.414;2023-03-01T12:24:27;9.48;;;7.95;;
39102;SDS011;24847;48.218;16.414;2023-03-01T12:30:09;9.57;;;7.90;;
39102;SDS011;24847;48.218;16.414;2023-03-01T12:35:54;11.07;;;9.38;;
39102;SDS011;24847;48.218;16.414;2023-03-01T12:41:47;10.18;;;8.40;;
39102;SDS011;24847;48.218;16.414;2023-03-01T12:47:23;8.98;;;7.70;;
39102;SDS011;24847;48.218;16.414;2023-03-01T12:53:00;10.27;;;8.60;;
39102;SDS011;24847;48.218;16.414;2023-03-01T12:58:24;10.95;;;9.15;;
39102;SDS011;24847;48.218;16.414;2023-03-01T13:09:51;10.63;;;8.87;;
39102;SDS011;24847;48.218;16.414;2023-03-01T13:15:32;11.60;;;8.95;;
39102;SDS011;24847;48.218;16.414;2023-03-01T13:20:57;11.65;;;8.70;;
39102;SDS011;24847;48.218;16.414;2023-03-01T13:26:26;8.95;;;8.02;;
39102;SDS011;24847;48.218;16.414;2023-03-01T13:31:57;11.80;;;8.70;;
39102;SDS011;24847;48.218;16.414;2023-03-01T13:37:26;15.13;;;8.63;;
39102;SDS011;24847;48.218;16.414;2023-03-01T13:42:57;10.20;;;8.52;;
39102;SDS011;24847;48.218;16.414;2023-03-01T13:48:52;10.15;;;8.95;;
39102;SDS011;24847;48.218;16.414;2023-03-01T13:54:21;11.77;;;9.68;;
39102;SDS011;24847;48.218;16.414;2023-03-01T13:59:49;10.68;;;8.65;;
39102;SDS011;24847;48.218;16.414;2023-03-01T14:05:12;11.75;;;9.00;;
39102;SDS011;24847;48.218;16.414;2023-03-01T14:10:37;9.55;;;7.88;;
39102;SDS011;24847;48.218;16.414;2023-03-01T14:16:12;11.68;;;8.90;;
39102;SDS011;24847;48.218;16.414;2023-03-01T14:21:47;9.70;;;8.35;;
39102;SDS011;24847;48.218;16.414;2023-03-01T14:27:24;14.88;;;9.95;;
39102;SDS011;24847;48.218;16.414;2023-03-01T14:32:54;11.25;;;9.18;;
39102;SDS011;24847;48.218;16.414;2023-03-01T14:38:20;12.65;;;9.48;;
39102;SDS011;24847;48.218;16.414;2023-03-01T14:43:45;11.57;;;9.90;;
39102;SDS011;24847;48.218;16.414;2023-03-01T14:49:12;12.10;;;9.73;;
39102;SDS011;24847;48.218;16.414;2023-03-01T14:54:38;13.15;;;10.23;;
39102;SDS011;24847;48.218;16.414;2023-03-01T15:00:05;14.93;;;9.85;;
39102;SDS011;24847;48.218;16.414;2023-03-01T15:05:32;14.45;;;10.32;;
39102;SDS011;24847;48.218;16.414;2023-03-01T15:10:56;11.38;;;9.48;;
39102;SDS011;24847;48.218;16.414;2023-03-01T15:16:24;14.93;;;9.32;;
39102;SDS011;24847;48.218;16.414;2023-03-01T15:21:49;13.43;;;9.20;;
39102;SDS011;24847;48.218;16.414;2023-03-01T15:27:14;11.15;;;9.35;;
39102;SDS011;24847;48.218;16.414;2023-03-01T15:32:40;13.30;;;10.20;;
39102;SDS011;24847;48.218;16.414;2023-03-01T15:38:03;12.23;;;9.50;;
39102;SDS011;24847;48.218;16.414;2023-03-01T15:43:41;14.80;;;9.05;;
39102;SDS011;24847;48.218;16.414;2023-03-01T15:49:21;11.93;;;9.23;;
39102;SDS011;24847;48.218;16.414;2023-03-01T15:54:57;12.15;;;9.77;;
39102;SDS011;24847;48.218;16.414;2023-03-01T16:00:23;11.75;;;9.18;;
39102;SDS011;24847;48.218;16.414;2023-03-01T16:05:48;12.70;;;9.80;;
39102;SDS011;24847;48.218;16.414;2023-03-01T16:11:13;10.32;;;8.95;;
39102;SDS011;24847;48.218;16.414;2023-03-01T16:16:39;12.85;;;9.65;;
39102;SDS011;24847;48.218;16.414;2023-03-01T16:22:03;13.50;;;9.25;;
39102;SDS011;24847;48.218;16.414;2023-03-01T16:27:26;11.80;;;9.10;;
39102;SDS011;24847;48.218;16.414;2023-03-01T16:32:49;11.70;;;9.60;;
39102;SDS011;24847;48.218;16.414;2023-03-01T16:38:13;12.10;;;10.10;;
39102;SDS011;24847;48.218;16.414;2023-03-01T16:43:36;12.15;;;9.23;;
39102;SDS011;24847;48.218;16.414;2023-03-01T16:48:59;12.55;;;8.93;;
39102;SDS011;24847;48.218;16.414;2023-03-01T16:54:25;12.23;;;9.45;;
39102;SDS011;24847;48.218;16.414;2023-03-01T16:59:47;14.25;;;9.65;;
39102;SDS011;24847;48.218;16.414;2023-03-01T17:05:14;14.05;;;10.07;;
39102;SDS011;24847;48.218;16.414;2023-03-01T17:10:39;11.05;;;9.27;;
39102;SDS011;24847;48.218;16.414;2023-03-01T17:16:04;14.45;;;9.18;;
39102;SDS011;24847;48.218;16.414;2023-03-01T17:21:29;13.40;;;9.93;;
39102;SDS011;24847;48.218;16.414;2023-03-01T17:26:53;13.35;;;10.07;;
39102;SDS011;24847;48.218;16.414;2023-03-01T17:32:17;12.82;;;10.35;;
39102;SDS011;24847;48.218;16.414;2023-03-01T17:37:40;14.35;;;10.90;;
39102;SDS011;24847;48.218;16.414;2023-03-01T17:43:08;13.38;;;9.93;;
39102;SDS011;24847;48.218;16.414;2023-03-01T17:48:30;12.95;;;10.48;;
39102;SDS011;24847;48.218;16.414;2023-03-01T17:53:53;16.90;;;11.25;;
39102;SDS011;24847;48.218;16.414;2023-03-01T17:59:19;14.98;;;10.68;;
39102;SDS011;24847;48.218;16.414;2023-03-01T18:04:42;15.88;;;11.40;;
39102;SDS011;24847;48.218;16.414;2023-03-01T18:10:05;14.95;;;10.93;;
39102;SDS011;24847;48.218;16.414;2023-03-01T18:15:31;16.60;;;10.80;;
39102;SDS011;24847;48.218;16.414;2023-03-01T18:20:55;16.17;;;11.18;;
39102;SDS011;24847;48.218;16.414;2023-03-01T18:26:19;16.63;;;11.18;;
39102;SDS011;24847;48.218;16.414;2023-03-01T18:31:46;18.67;;;11.82;;
39102;SDS011;24847;48.218;16.414;2023-03-01T18:37:09;15.77;;;11.40;;
39102;SDS011;24847;48.218;16.414;2023-03-01T18:42:32;15.30;;;11.32;;
39102;SDS011;24847;48.218;16.414;2023-03-01T18:47:57;19.60;;;13.05;;
39102;SDS011;24847;48.218;16.414;2023-03-01T18:53:21;19.40;;;13.07;;
39102;SDS011;24847;48.218;16.414;2023-03-01T18:58:47;20.48;;;14.55;;
39102;SDS011;24847;48.218;16.414;2023-03-01T19:04:12;18.85;;;13.63;;
39102;SDS011;24847;48.218;16.414;2023-03-01T19:09:38;16.98;;;12.80;;
39102;SDS011;24847;48.218;16.414;2023-03-01T19:15:02;17.52;;;13.50;;
39102;SDS011;24847;48.218;16.414;2023-03-01T19:20:31;18.75;;;12.90;;
39102;SDS011;24847;48.218;16.414;2023-03-01T19:25:58;15.52;;;12.05;;
39102;SDS011;24847;48.218;16.414;2023-03-01T19:31:22;16.83;;;11.65;;
39102;SDS011;24847;48.218;16.414;2023-03-01T19:36:51;14.65;;;10.90;;
39102;SDS011;24847;48.218;16.414;2023-03-01T19:42:15;15.73;;;11.90;;
39102;SDS011;24847;48.218;16.414;2023-03-01T19:47:45;15.73;;;11.55;;
39102;SDS011;24847;48.218;16.414;2023-03-01T19:53:13;15.02;;;11.43;;
39102;SDS011;24847;48.218;16.414;2023-03-01T19:58:37;14.70;;;11.05;;
39102;SDS011;24847;48.218;16.414;2023-03-01T20:04:03;15.48;;;11.60;;
39102;SDS011;24847;48.218;16.414;2023-03-01T20:09:30;16.80;;;12.35;;
39102;SDS011;24847;48.218;16.414;2023-03-01T20:14:53;18.08;;;12.10;;
39102;SDS011;24847;48.218;16.414;2023-03-01T20:20:17;16.35;;;12.18;;
39102;SDS011;24847;48.218;16.414;2023-03-01T20:25:44;16.50;;;12.23;;
39102;SDS011;24847;48.218;16.414;2023-03-01T20:31:09;18.10;;;12.88;;
39102;SDS011;24847;48.218;16.414;2023-03-01T20:36:36;29.15;;;20.10;;
39102;SDS011;24847;48.218;16.414;2023-03-01T20:42:01;23.80;;;15.90;;
39102;SDS011;24847;48.218;16.414;2023-03-01T20:47:25;20.98;;;14.65;;
39102;SDS011;24847;48.218;16.414;2023-03-01T20:52:49;19.45;;;13.88;;
39102;SDS011;24847;48.218;16.414;2023-03-01T20:58:14;18.50;;;13.00;;
39102;SDS011;24847;48.218;16.414;2023-03-01T21:03:37;18.85;;;12.60;;
39102;SDS011;24847;48.218;16.414;2023-03-01T21:09:00;18.67;;;13.00;;
39102;SDS011;24847;48.218;16.414;2023-03-01T21:14:24;18.27;;;12.75;;
39102;SDS011;24847;48.218;16.414;2023-03-01T21:19:48;16.52;;;12.60;;
39102;SDS011;24847;48.218;16.414;2023-03-01T21:25:11;19.13;;;13.70;;
39102;SDS011;24847;48.218;16.414;2023-03-01T21:30:35;19.05;;;13.45;;
39102;SDS011;24847;48.218;16.414;2023-03-01T21:35:58;22.38;;;15.00;;
39102;SDS011;24847;48.218;16.414;2023-03-01T21:41:23;23.23;;;16.30;;
39102;SDS011;24847;48.218;16.414;2023-03-01T21:46:49;24.65;;;16.73;;
